Time;durP1;ratioP1;P1;durP2;ratioP2;P2;SDS_P1;SDS_P2;PMS_P1;PMS_P2;Temp;Humidity;BMP_temperature;BMP_pressure;BME280_temperature;BME280_humidity;BME280_pressure;Samples;Min_cycle;Max_cycle;Signal;HPM_P1;HPM_P2
2021/12/31 00:00:30;;;;;;;1.93;1.03;;;10.70;99.90;;;;;;4997113;28;20529;-69
2021/12/31 00:02:56;;;;;;;2.47;1.40;;;10.70;99.90;;;;;;4997315;28;20188;-69
2021/12/31 00:05:22;;;;;;;1.63;1.00;;;10.60;99.90;;;;;;4998035;28;20553;-69
2021/12/31 00:07:48;;;;;;;2.70;1.10;;;10.60;99.90;;;;;;4988829;28;20474;-69
2021/12/31 00:10:14;;;;;;;2.03;1.07;;;10.60;99.90;;;;;;4991903;28;20204;-69
2021/12/31 00:12:42;;;;;;;1.67;1.00;;;10.50;99.90;;;;;;4988741;28;20274;-68
2021/12/31 00:15:08;;;;;;;1.90;1.20;;;10.50;99.90;;;;;;4988865;28;20425;-69
2021/12/31 00:17:34;;;;;;;1.67;0.60;;;10.50;99.90;;;;;;4988652;28;20476;-69
2021/12/31 00:20:07;;;;;;;2.07;1.10;;;10.50;99.90;;;;;;4990685;28;20753;-69
2021/12/31 00:25:02;;;;;;;3.13;0.93;;;10.30;99.90;;;;;;4991172;28;20729;-69
2021/12/31 00:27:28;;;;;;;3.00;1.10;;;10.20;99.90;;;;;;4990187;28;20823;-69
2021/12/31 00:29:53;;;;;;;1.83;0.97;;;10.20;99.90;;;;;;4992820;28;21237;-69
2021/12/31 00:32:19;;;;;;;3.00;1.23;;;10.10;99.90;;;;;;4996785;28;20183;-69
2021/12/31 00:34:45;;;;;;;4.77;1.30;;;10.10;99.90;;;;;;4995760;28;20706;-69
2021/12/31 00:37:11;;;;;;;5.87;1.13;;;10.00;99.90;;;;;;4991104;28;20183;-69
2021/12/31 00:39:37;;;;;;;3.47;0.80;;;10.00;99.90;;;;;;4996329;28;20472;-69
2021/12/31 00:42:03;;;;;;;1.97;1.10;;;9.90;99.90;;;;;;4991892;28;20466;-69
2021/12/31 00:44:29;;;;;;;7.87;1.63;;;9.90;99.90;;;;;;4996327;28;20179;-69
2021/12/31 00:46:55;;;;;;;4.70;1.30;;;9.90;99.90;;;;;;4991369;28;20601;-69
2021/12/31 00:49:20;;;;;;;2.90;1.20;;;9.80;99.90;;;;;;4995220;28;20287;-69
2021/12/31 00:51:46;;;;;;;2.13;1.00;;;9.80;99.90;;;;;;4992897;28;20190;-69
2021/12/31 00:54:12;;;;;;;3.33;0.97;;;9.80;99.90;;;;;;4997340;28;20571;-68
2021/12/31 00:56:38;;;;;;;2.90;1.50;;;9.70;99.90;;;;;;4994031;28;20198;-69
2021/12/31 00:59:04;;;;;;;2.37;1.23;;;9.80;99.90;;;;;;4997669;28;20771;-69
2021/12/31 01:01:34;;;;;;;2.60;1.37;;;9.80;99.90;;;;;;4994795;28;20195;-69
2021/12/31 01:03:59;;;;;;;1.57;0.90;;;9.70;99.90;;;;;;4998852;28;20221;-69
2021/12/31 01:06:25;;;;;;;2.37;1.53;;;9.70;99.90;;;;;;4989481;28;20508;-69
2021/12/31 01:08:50;;;;;;;3.40;1.13;;;9.70;99.90;;;;;;4988040;28;20204;-69
2021/12/31 01:11:17;;;;;;;1.53;0.90;;;9.60;99.90;;;;;;4988226;28;20652;-69
2021/12/31 01:14:00;;;;;;;1.50;0.70;;;9.60;99.90;;;;;;4989592;28;20493;-69
2021/12/31 01:16:35;;;;;;;1.80;0.90;;;9.60;99.90;;;;;;4988856;28;20536;-69
2021/12/31 01:21:27;;;;;;;1.40;0.60;;;9.50;99.90;;;;;;4990364;28;20838;-69
2021/12/31 01:23:57;;;;;;;1.73;1.03;;;9.40;99.90;;;;;;5000783;28;20517;-69
2021/12/31 01:26:23;;;;;;;1.80;0.73;;;9.40;99.90;;;;;;4988237;28;20183;-69
2021/12/31 01:28:48;;;;;;;2.27;1.10;;;9.40;99.90;;;;;;4990767;28;20498;-69
2021/12/31 01:31:14;;;;;;;1.73;0.80;;;9.40;99.90;;;;;;4992644;28;20215;-68
2021/12/31 01:33:40;;;;;;;1.40;0.60;;;9.40;99.90;;;;;;4995164;28;20520;-68
2021/12/31 01:36:05;;;;;;;1.67;0.80;;;9.40;99.90;;;;;;4995134;28;20425;-68
2021/12/31 01:38:31;;;;;;;2.93;1.60;;;9.40;99.90;;;;;;4995775;28;20235;-68
2021/12/31 01:40:57;;;;;;;3.83;0.90;;;9.40;99.90;;;;;;4993868;28;20702;-68
2021/12/31 01:43:23;;;;;;;2.27;1.03;;;9.40;99.90;;;;;;4994401;28;20528;-68
2021/12/31 01:45:55;;;;;;;2.37;1.13;;;9.40;99.90;;;;;;4993705;28;20238;-68
2021/12/31 01:48:26;;;;;;;2.27;1.03;;;9.30;99.90;;;;;;4990691;28;20225;-68
2021/12/31 01:50:52;;;;;;;1.60;0.70;;;9.30;99.90;;;;;;4995719;28;20422;-68
2021/12/31 01:53:21;;;;;;;2.53;0.83;;;9.20;99.90;;;;;;4994569;28;20426;-68
2021/12/31 01:55:49;;;;;;;2.27;0.77;;;9.30;99.90;;;;;;4996317;28;20434;-68
2021/12/31 01:58:20;;;;;;;1.93;1.10;;;9.20;99.90;;;;;;4994758;28;20435;-68
2021/12/31 02:00:47;;;;;;;3.43;1.50;;;9.20;99.90;;;;;;4995975;28;20866;-68
2021/12/31 02:03:13;;;;;;;1.90;1.00;;;9.10;99.90;;;;;;4994086;28;20490;-68
2021/12/31 02:05:38;;;;;;;3.97;1.43;;;9.10;99.90;;;;;;4996961;28;20433;-68
2021/12/31 02:08:05;;;;;;;1.87;1.00;;;9.10;99.90;;;;;;4986974;28;20804;-68
2021/12/31 02:10:30;;;;;;;2.37;1.10;;;9.00;99.90;;;;;;4984123;28;20185;-67
2021/12/31 02:12:57;;;;;;;1.73;0.87;;;9.00;99.90;;;;;;4991259;28;20430;-68
2021/12/31 02:15:24;;;;;;;2.87;1.10;;;9.00;99.90;;;;;;4988268;28;20270;-68
2021/12/31 02:17:50;;;;;;;3.80;0.90;;;9.00;99.90;;;;;;4987569;28;20466;-68
2021/12/31 02:20:18;;;;;;;1.87;0.80;;;9.00;99.90;;;;;;4990125;28;20464;-68
2021/12/31 02:22:54;;;;;;;2.13;1.00;;;9.00;99.90;;;;;;4988993;28;20263;-68
2021/12/31 02:25:22;;;;;;;3.00;1.03;;;9.00;99.90;;;;;;4991162;28;20441;-68
2021/12/31 02:27:48;;;;;;;2.10;1.10;;;9.00;99.90;;;;;;4989178;28;20471;-68
2021/12/31 02:30:14;;;;;;;2.30;1.10;;;9.00;99.90;;;;;;4991737;28;20423;-68
2021/12/31 02:32:39;;;;;;;11.37;1.03;;;9.00;99.90;;;;;;4991636;28;20188;-68
2021/12/31 02:35:07;;;;;;;3.23;0.60;;;9.00;99.90;;;;;;5002138;28;20191;-68
2021/12/31 02:37:33;;;;;;;1.80;0.80;;;9.00;99.90;;;;;;4994544;28;20596;-68
2021/12/31 02:40:05;;;;;;;1.30;0.60;;;8.90;99.90;;;;;;5001024;28;20430;-68
2021/12/31 02:42:31;;;;;;;2.90;1.60;;;8.90;99.90;;;;;;4997357;28;20188;-68
2021/12/31 02:44:57;;;;;;;4.13;1.00;;;9.00;99.90;;;;;;4999809;28;20424;-68
2021/12/31 02:47:23;;;;;;;1.90;0.80;;;8.90;99.90;;;;;;4997266;28;20226;-68
2021/12/31 02:49:49;;;;;;;1.70;0.93;;;8.90;99.90;;;;;;4997424;28;20229;-68
2021/12/31 02:52:16;;;;;;;1.70;0.80;;;8.90;99.90;;;;;;4990344;28;20214;-68
2021/12/31 02:54:45;;;;;;;1.80;1.20;;;8.90;99.90;;;;;;4990723;28;20449;-68
2021/12/31 02:57:12;;;;;;;2.00;0.80;;;8.90;99.90;;;;;;4990457;28;20785;-68
2021/12/31 02:59:39;;;;;;;1.97;0.90;;;8.80;99.90;;;;;;4992098;28;20762;-68
2021/12/31 03:02:06;;;;;;;2.33;0.90;;;8.80;99.90;;;;;;5000820;28;20454;-68
2021/12/31 03:04:36;;;;;;;1.60;0.80;;;8.70;99.90;;;;;;4991894;28;20939;-68
2021/12/31 03:07:06;;;;;;;1.80;1.00;;;8.70;99.90;;;;;;4992803;28;20510;-68
2021/12/31 03:09:34;;;;;;;2.37;0.80;;;8.70;99.90;;;;;;4991825;28;20764;-68
2021/12/31 03:12:01;;;;;;;1.23;0.60;;;8.70;99.90;;;;;;4994116;28;20461;-68
2021/12/31 03:14:29;;;;;;;2.03;1.17;;;8.60;99.90;;;;;;4992613;28;20745;-68
2021/12/31 03:16:54;;;;;;;1.30;0.60;;;8.60;99.90;;;;;;4992956;28;20437;-68
2021/12/31 03:19:21;;;;;;;2.90;1.10;;;8.50;99.90;;;;;;4993624;28;20440;-68
2021/12/31 03:21:47;;;;;;;1.37;0.70;;;8.50;99.90;;;;;;4996425;28;20198;-68
2021/12/31 03:24:13;;;;;;;1.63;0.60;;;8.50;99.90;;;;;;4992921;28;20450;-68
2021/12/31 03:26:39;;;;;;;3.33;1.40;;;8.40;99.90;;;;;;4997049;28;20429;-67
2021/12/31 03:29:05;;;;;;;2.50;1.30;;;8.40;99.90;;;;;;4993890;28;20595;-68
2021/12/31 03:31:31;;;;;;;4.43;0.93;;;8.30;99.90;;;;;;4997387;28;20580;-68
2021/12/31 03:33:57;;;;;;;2.00;1.00;;;8.20;99.90;;;;;;4999898;28;20856;-68
2021/12/31 03:36:22;;;;;;;1.67;0.80;;;8.20;99.90;;;;;;4998870;28;20187;-68
2021/12/31 03:38:48;;;;;;;2.23;1.00;;;8.10;99.90;;;;;;4998180;28;20195;-68
2021/12/31 03:41:14;;;;;;;2.93;1.23;;;8.00;99.90;;;;;;4999651;28;20206;-68
2021/12/31 03:43:40;;;;;;;1.70;0.87;;;7.90;99.90;;;;;;4996690;28;20188;-68
2021/12/31 03:46:07;;;;;;;2.00;1.00;;;7.80;99.90;;;;;;4988878;28;20195;-68
2021/12/31 03:48:33;;;;;;;2.03;1.07;;;7.80;99.90;;;;;;4994657;28;20305;-68
2021/12/31 03:50:59;;;;;;;3.37;1.50;;;7.70;99.90;;;;;;4990707;28;20450;-68
2021/12/31 03:53:24;;;;;;;1.80;1.00;;;7.60;99.90;;;;;;4997893;28;20426;-68
2021/12/31 03:55:50;;;;;;;9.83;1.40;;;7.70;99.90;;;;;;4992194;28;20187;-67
2021/12/31 03:58:16;;;;;;;3.80;1.10;;;7.60;99.90;;;;;;4991203;28;20196;-68
2021/12/31 04:00:42;;;;;;;8.00;1.77;;;7.60;99.90;;;;;;4988844;28;20820;-68
2021/12/31 04:03:09;;;;;;;1.80;1.00;;;7.50;99.90;;;;;;4991005;28;20192;-68
2021/12/31 04:05:36;;;;;;;2.73;1.50;;;7.40;99.90;;;;;;4993887;28;20739;-68
2021/12/31 04:08:03;;;;;;;3.73;0.90;;;7.30;99.90;;;;;;4991621;28;20855;-68
2021/12/31 04:10:29;;;;;;;2.13;1.23;;;7.30;99.90;;;;;;4995024;28;20901;-67
2021/12/31 04:12:55;;;;;;;1.80;0.90;;;7.20;99.90;;;;;;4992363;28;20423;-68
2021/12/31 04:15:21;;;;;;;2.70;1.10;;;7.10;99.90;;;;;;4996065;28;20262;-68
2021/12/31 04:17:47;;;;;;;4.60;1.00;;;7.00;99.90;;;;;;4991379;28;20426;-68
2021/12/31 04:20:33;;;;;;;2.70;1.37;;;7.00;99.90;;;;;;4997623;28;20955;-67
2021/12/31 04:23:02;;;;;;;2.17;1.20;;;7.00;99.90;;;;;;4994582;28;20188;-68
2021/12/31 04:25:27;;;;;;;2.27;1.23;;;6.90;99.90;;;;;;4996415;28;20458;-68
2021/12/31 04:27:53;;;;;;;2.47;1.20;;;6.80;99.90;;;;;;4995086;28;20645;-67
2021/12/31 04:30:19;;;;;;;2.40;1.50;;;6.70;99.90;;;;;;4997826;28;20667;-68
2021/12/31 04:32:44;;;;;;;4.70;1.83;;;6.70;99.90;;;;;;4994428;28;20187;-68
2021/12/31 04:35:11;;;;;;;2.97;1.30;;;6.60;99.90;;;;;;4997536;28;20179;-68
2021/12/31 04:37:42;;;;;;;1.60;0.77;;;6.60;99.90;;;;;;4992133;28;20199;-68
2021/12/31 04:40:11;;;;;;;1.77;0.80;;;6.60;99.90;;;;;;4993360;28;20451;-68
2021/12/31 04:42:42;;;;;;;15.33;1.10;;;6.50;99.90;;;;;;4989906;28;20518;-68
2021/12/31 04:45:12;;;;;;;2.60;1.30;;;6.50;99.90;;;;;;4990845;28;20426;-68
2021/12/31 04:47:39;;;;;;;2.03;1.00;;;6.40;99.90;;;;;;4990671;28;20470;-68
2021/12/31 04:50:05;;;;;;;2.33;1.23;;;6.40;99.90;;;;;;4993085;28;20438;-68
2021/12/31 04:52:31;;;;;;;1.80;1.07;;;6.30;99.90;;;;;;4990909;28;20441;-68
2021/12/31 04:54:57;;;;;;;2.90;1.07;;;6.30;99.90;;;;;;4992901;28;20851;-68
2021/12/31 04:57:25;;;;;;;3.10;1.57;;;6.40;99.90;;;;;;4991135;28;20568;-68
2021/12/31 04:59:51;;;;;;;3.20;1.50;;;6.40;99.90;;;;;;4995067;28;20271;-68
2021/12/31 05:02:17;;;;;;;10.63;2.47;;;6.50;99.90;;;;;;4991296;28;20434;-68
2021/12/31 05:04:43;;;;;;;8.57;3.03;;;6.60;99.90;;;;;;4995598;28;20422;-69
2021/12/31 05:07:08;;;;;;;6.93;2.33;;;6.60;99.90;;;;;;4992214;28;20198;-68
2021/12/31 05:09:34;;;;;;;3.43;1.40;;;6.70;99.90;;;;;;4997300;28;20198;-68
2021/12/31 05:12:01;;;;;;;2.83;1.20;;;6.60;99.90;;;;;;4993202;28;20238;-68
2021/12/31 05:14:27;;;;;;;3.30;1.60;;;6.60;99.90;;;;;;4998010;28;20189;-68
2021/12/31 05:16:52;;;;;;;5.10;2.10;;;6.70;99.90;;;;;;4991596;28;20852;-68
2021/12/31 05:19:18;;;;;;;4.40;2.13;;;6.70;99.90;;;;;;4996393;28;20233;-68
2021/12/31 05:21:44;;;;;;;7.60;1.77;;;6.70;99.90;;;;;;4993957;28;20859;-68
2021/12/31 05:24:10;;;;;;;2.87;1.20;;;6.70;99.90;;;;;;4993987;28;20202;-68
2021/12/31 05:26:35;;;;;;;3.47;1.60;;;6.70;99.90;;;;;;4994826;28;20191;-68
2021/12/31 05:29:02;;;;;;;3.60;1.77;;;6.60;99.90;;;;;;4990813;28;20707;-68
2021/12/31 05:31:28;;;;;;;3.63;1.57;;;6.50;99.90;;;;;;4987102;28;20198;-68
2021/12/31 05:33:54;;;;;;;4.83;1.70;;;6.50;99.90;;;;;;4989028;28;21041;-68
2021/12/31 05:36:19;;;;;;;3.37;1.37;;;6.50;99.90;;;;;;4987856;28;20434;-68
2021/12/31 05:38:45;;;;;;;2.97;1.23;;;6.50;99.90;;;;;;4993587;28;20195;-68
2021/12/31 05:41:11;;;;;;;2.90;1.40;;;6.40;99.90;;;;;;4992415;28;20409;-68
2021/12/31 05:43:38;;;;;;;2.20;1.30;;;6.40;99.90;;;;;;4989592;28;20195;-68
2021/12/31 05:46:04;;;;;;;3.40;1.03;;;6.30;99.90;;;;;;4990935;28;20766;-68
2021/12/31 05:48:30;;;;;;;2.80;1.17;;;6.30;99.90;;;;;;4995710;28;20480;-68
2021/12/31 05:50:56;;;;;;;3.40;1.50;;;6.20;99.90;;;;;;4993343;28;20183;-68
2021/12/31 05:53:22;;;;;;;1.80;1.10;;;6.30;99.90;;;;;;4990394;28;20427;-69
2021/12/31 05:55:48;;;;;;;2.27;1.40;;;6.20;99.90;;;;;;4993816;28;20475;-68
2021/12/31 05:58:13;;;;;;;2.70;1.30;;;6.20;99.90;;;;;;4991025;28;20232;-68
2021/12/31 06:00:40;;;;;;;5.03;1.63;;;6.20;99.90;;;;;;4995349;28;20222;-68
2021/12/31 06:03:06;;;;;;;9.63;1.67;;;6.40;99.90;;;;;;4991109;28;20194;-68
2021/12/31 06:05:32;;;;;;;2.50;1.43;;;6.50;99.90;;;;;;4996226;28;20544;-68
2021/12/31 06:07:59;;;;;;;2.70;1.50;;;6.60;99.90;;;;;;4990122;28;20466;-68
2021/12/31 06:10:25;;;;;;;2.23;1.00;;;6.70;99.90;;;;;;4997834;28;20476;-68
2021/12/31 06:12:55;;;;;;;2.67;1.10;;;6.80;99.90;;;;;;4993230;28;20801;-69
2021/12/31 06:15:21;;;;;;;2.40;1.43;;;7.00;99.90;;;;;;4992198;28;20422;-68
2021/12/31 06:17:46;;;;;;;3.63;2.10;;;7.10;99.90;;;;;;4994779;28;20753;-68
2021/12/31 06:20:12;;;;;;;3.00;1.40;;;7.30;99.90;;;;;;4987293;28;20270;-68
2021/12/31 06:22:38;;;;;;;3.93;1.53;;;7.30;99.90;;;;;;4987130;28;20561;-69
2021/12/31 06:25:04;;;;;;;2.90;1.50;;;7.30;99.90;;;;;;4987836;28;20431;-68
2021/12/31 06:27:30;;;;;;;5.37;2.63;;;7.40;99.90;;;;;;4987463;28;20216;-69
2021/12/31 06:29:56;;;;;;;2.47;1.30;;;7.40;99.90;;;;;;4989224;28;20554;-69
2021/12/31 06:32:22;;;;;;;4.70;2.20;;;7.50;99.90;;;;;;4987733;28;20433;-69
2021/12/31 06:34:47;;;;;;;8.20;2.10;;;7.50;99.90;;;;;;4992223;28;20226;-69
2021/12/31 06:37:13;;;;;;;4.73;1.60;;;7.50;99.90;;;;;;4988713;28;20184;-69
2021/12/31 06:39:41;;;;;;;5.37;2.30;;;7.50;99.90;;;;;;4996590;28;20415;-69
2021/12/31 06:42:07;;;;;;;6.73;2.60;;;7.50;99.90;;;;;;4989109;28;20427;-69
2021/12/31 06:44:34;;;;;;;4.07;2.10;;;7.50;99.90;;;;;;4991585;28;20435;-69
2021/12/31 06:47:00;;;;;;;4.47;2.80;;;7.50;99.90;;;;;;4988660;28;20438;-69
2021/12/31 06:49:26;;;;;;;4.53;2.43;;;7.50;99.90;;;;;;4992169;28;20458;-69
2021/12/31 06:51:51;;;;;;;8.63;3.20;;;7.50;99.90;;;;;;4989698;28;20193;-69
2021/12/31 06:54:17;;;;;;;5.77;2.90;;;7.50;99.90;;;;;;4993917;28;20298;-69
2021/12/31 06:56:43;;;;;;;9.13;3.07;;;7.50;99.90;;;;;;4990390;28;20223;-69
2021/12/31 06:59:08;;;;;;;3.43;2.40;;;7.50;99.90;;;;;;4994876;28;20229;-69
2021/12/31 07:01:34;;;;;;;4.97;2.70;;;7.50;99.90;;;;;;4990046;28;20226;-69
2021/12/31 07:03:59;;;;;;;7.63;3.90;;;7.50;99.90;;;;;;4995317;28;20214;-69
2021/12/31 07:06:25;;;;;;;8.23;3.73;;;7.50;99.90;;;;;;4982132;28;20189;-69
2021/12/31 07:08:50;;;;;;;5.70;3.17;;;7.50;99.90;;;;;;5001739;28;20211;-69
2021/12/31 07:11:17;;;;;;;4.63;2.97;;;7.50;99.90;;;;;;4992290;28;20200;-69
2021/12/31 07:13:43;;;;;;;5.70;3.10;;;7.60;99.90;;;;;;4994504;28;20238;-69
2021/12/31 07:16:09;;;;;;;11.53;3.60;;;7.60;99.90;;;;;;4985169;28;20542;-68
2021/12/31 07:18:34;;;;;;;5.77;3.50;;;7.70;99.90;;;;;;4987324;28;20442;-69
2021/12/31 07:21:00;;;;;;;8.07;3.47;;;7.80;99.90;;;;;;4990273;28;20198;-69
2021/12/31 07:23:25;;;;;;;5.97;2.53;;;7.80;99.90;;;;;;4990550;28;20176;-69
2021/12/31 07:25:51;;;;;;;8.33;4.53;;;7.80;99.90;;;;;;4990357;28;20191;-69
2021/12/31 07:28:17;;;;;;;8.03;2.63;;;7.70;99.90;;;;;;4992347;28;20639;-69
2021/12/31 07:30:44;;;;;;;6.50;2.50;;;7.60;99.90;;;;;;4991757;28;20192;-69
2021/12/31 07:33:17;;;;;;;10.30;2.97;;;7.60;99.90;;;;;;4992844;28;20572;-69
2021/12/31 07:35:43;;;;;;;5.80;2.83;;;7.50;99.90;;;;;;4993388;28;20892;-69
2021/12/31 07:38:17;;;;;;;4.93;3.20;;;7.50;99.90;;;;;;4995174;28;20426;-69
2021/12/31 07:40:43;;;;;;;6.73;3.03;;;7.50;99.90;;;;;;4991984;28;20995;-69
2021/12/31 07:43:10;;;;;;;6.80;2.10;;;7.50;99.90;;;;;;4995157;28;20473;-69
2021/12/31 07:45:36;;;;;;;5.00;2.63;;;7.40;99.90;;;;;;4993473;28;20978;-69
2021/12/31 07:48:03;;;;;;;6.10;2.53;;;7.40;99.90;;;;;;4993991;28;20502;-69
2021/12/31 07:50:29;;;;;;;8.53;3.17;;;7.40;99.90;;;;;;4994605;28;20411;-69
2021/12/31 07:52:55;;;;;;;4.90;2.20;;;7.50;99.90;;;;;;4996924;28;20415;-69
2021/12/31 07:55:21;;;;;;;6.83;2.70;;;7.50;99.90;;;;;;4997638;28;20783;-69
2021/12/31 07:57:46;;;;;;;5.17;2.63;;;7.70;99.90;;;;;;4990511;28;20191;-69
2021/12/31 08:00:12;;;;;;;10.70;3.40;;;7.60;99.90;;;;;;4996161;28;20589;-69
2021/12/31 08:02:38;;;;;;;6.07;3.10;;;7.60;99.90;;;;;;4999365;28;20575;-69
2021/12/31 08:05:05;;;;;;;7.83;3.10;;;7.70;99.90;;;;;;4992628;28;20419;-69
2021/12/31 08:07:30;;;;;;;10.93;4.87;;;7.80;99.90;;;;;;5000140;28;20671;-69
2021/12/31 08:09:56;;;;;;;10.00;4.87;;;7.90;99.90;;;;;;4988930;28;20427;-69
2021/12/31 08:12:22;;;;;;;10.80;3.80;;;7.90;99.90;;;;;;4989447;28;20191;-69
2021/12/31 08:14:48;;;;;;;8.07;4.70;;;8.00;99.90;;;;;;4990259;28;20679;-69
2021/12/31 08:17:14;;;;;;;11.33;5.30;;;8.10;99.90;;;;;;4988901;28;20425;-69
2021/12/31 08:19:39;;;;;;;8.50;4.80;;;8.20;99.90;;;;;;4991605;28;20214;-69
2021/12/31 08:22:05;;;;;;;15.27;6.20;;;8.20;99.90;;;;;;4990903;28;20567;-69
2021/12/31 08:24:30;;;;;;;12.77;5.50;;;8.40;99.90;;;;;;4991471;28;20183;-69
2021/12/31 08:26:56;;;;;;;10.47;4.93;;;8.50;99.90;;;;;;4991712;28;20210;-69
2021/12/31 08:29:22;;;;;;;10.57;4.63;;;8.60;99.90;;;;;;4991284;28;20278;-69
2021/12/31 08:31:47;;;;;;;8.70;3.80;;;8.70;99.90;;;;;;4992494;28;20637;-69
2021/12/31 08:34:13;;;;;;;8.67;4.60;;;8.70;99.90;;;;;;4994778;28;20180;-69
2021/12/31 08:36:39;;;;;;;10.07;4.20;;;8.80;99.90;;;;;;4991905;28;20187;-69
2021/12/31 08:39:10;;;;;;;8.37;3.30;;;8.90;99.90;;;;;;4998052;28;20212;-69
2021/12/31 08:41:37;;;;;;;9.40;3.80;;;9.00;99.90;;;;;;4994976;28;20214;-69
2021/12/31 08:44:04;;;;;;;10.63;3.57;;;9.10;99.90;;;;;;4994817;28;20441;-69
2021/12/31 08:46:30;;;;;;;8.63;3.40;;;9.20;99.90;;;;;;4999044;28;20430;-69
2021/12/31 08:48:56;;;;;;;6.13;3.33;;;9.40;99.90;;;;;;4991248;28;20501;-69
2021/12/31 08:51:21;;;;;;;6.13;3.37;;;9.50;99.90;;;;;;4996712;28;20449;-69
2021/12/31 08:53:47;;;;;;;6.83;4.00;;;9.50;99.90;;;;;;4994519;28;20716;-69
2021/12/31 08:56:13;;;;;;;5.97;3.00;;;9.60;99.90;;;;;;4992164;28;20195;-69
2021/12/31 08:58:38;;;;;;;6.50;3.27;;;9.60;99.90;;;;;;4994807;28;20274;-69
2021/12/31 09:01:04;;;;;;;8.47;4.43;;;9.60;99.90;;;;;;4998909;28;20191;-69
2021/12/31 09:03:29;;;;;;;6.27;2.77;;;9.60;99.90;;;;;;4995014;28;20196;-69
2021/12/31 09:05:55;;;;;;;9.30;4.00;;;9.60;99.90;;;;;;4987537;28;20223;-69
2021/12/31 09:08:22;;;;;;;13.10;3.27;;;9.60;99.90;;;;;;4987885;28;20219;-69
2021/12/31 09:10:48;;;;;;;9.83;3.90;;;9.70;99.90;;;;;;4981826;28;20184;-69
2021/12/31 09:13:14;;;;;;;11.20;4.53;;;9.90;99.90;;;;;;4982686;28;20448;-69
2021/12/31 09:15:39;;;;;;;9.43;3.47;;;10.00;99.90;;;;;;4988253;28;20215;-69
2021/12/31 09:18:05;;;;;;;7.30;3.87;;;10.00;99.90;;;;;;4988243;28;20669;-69
2021/12/31 09:20:31;;;;;;;9.30;4.63;;;10.00;99.90;;;;;;4989594;28;20231;-69
2021/12/31 09:22:56;;;;;;;9.77;4.80;;;9.90;99.90;;;;;;4989527;28;20240;-69
2021/12/31 09:25:23;;;;;;;7.50;4.13;;;10.00;99.90;;;;;;4990532;28;20192;-69
2021/12/31 09:27:49;;;;;;;12.73;4.73;;;9.90;99.90;;;;;;4990032;28;20262;-69
2021/12/31 09:30:14;;;;;;;7.30;3.83;;;9.80;99.90;;;;;;4992259;28;20462;-69
2021/12/31 09:32:41;;;;;;;9.97;4.00;;;9.80;99.90;;;;;;4990096;28;20192;-69
2021/12/31 09:35:07;;;;;;;6.00;3.40;;;9.80;99.90;;;;;;4995278;28;20278;-69
2021/12/31 09:37:33;;;;;;;7.93;3.73;;;9.70;99.90;;;;;;4995317;28;20976;-69
2021/12/31 09:39:59;;;;;;;14.50;4.00;;;9.70;99.90;;;;;;4997112;28;20453;-69
2021/12/31 09:42:25;;;;;;;8.13;4.13;;;9.80;99.90;;;;;;4992448;28;20614;-69
2021/12/31 09:44:51;;;;;;;8.53;3.77;;;9.80;99.90;;;;;;4995989;28;20942;-69
2021/12/31 09:47:18;;;;;;;10.07;4.80;;;9.80;99.90;;;;;;4992933;28;20203;-69
2021/12/31 09:49:46;;;;;;;9.50;3.50;;;9.80;99.90;;;;;;4994030;28;20584;-69
2021/12/31 09:52:13;;;;;;;6.40;3.33;;;9.80;99.90;;;;;;4994379;28;20427;-69
2021/12/31 09:54:44;;;;;;;7.83;3.60;;;9.90;99.90;;;;;;4991173;28;20439;-69
2021/12/31 09:57:20;;;;;;;10.00;4.40;;;9.90;99.90;;;;;;4987152;28;20435;-69
2021/12/31 09:59:47;;;;;;;8.63;3.60;;;10.00;99.90;;;;;;4987348;28;20696;-69
2021/12/31 10:02:15;;;;;;;6.57;2.97;;;10.00;99.90;;;;;;4987957;28;20765;-69
2021/12/31 10:04:52;;;;;;;8.47;3.43;;;9.90;99.90;;;;;;4987906;28;20965;-69
2021/12/31 10:07:21;;;;;;;11.00;4.17;;;10.00;99.90;;;;;;4989065;28;20513;-69
2021/12/31 10:10:09;;;;;;;10.17;4.20;;;9.90;99.90;;;;;;4988234;28;21007;-69
2021/12/31 10:12:44;;;;;;;9.03;3.57;;;9.80;99.90;;;;;;4989136;28;20438;-69
2021/12/31 10:15:09;;;;;;;10.27;4.33;;;9.80;99.90;;;;;;4991812;28;20452;-70
2021/12/31 10:17:35;;;;;;;5.63;3.10;;;9.80;99.90;;;;;;4990260;28;20419;-69
2021/12/31 10:20:01;;;;;;;7.37;3.77;;;9.90;99.90;;;;;;4992043;28;20281;-70
2021/12/31 10:22:26;;;;;;;7.90;3.77;;;9.90;99.90;;;;;;4990191;28;20222;-69
2021/12/31 10:24:53;;;;;;;9.10;3.80;;;9.90;99.90;;;;;;4994255;28;20648;-69
2021/12/31 10:27:20;;;;;;;6.70;3.40;;;10.00;99.90;;;;;;4991996;28;20183;-69
2021/12/31 10:30:06;;;;;;;8.13;4.13;;;10.10;99.90;;;;;;4995270;28;20991;-69
2021/12/31 10:32:40;;;;;;;11.30;4.60;;;10.20;99.90;;;;;;4987286;28;20557;-69
2021/12/31 10:35:13;;;;;;;9.70;3.87;;;10.30;99.90;;;;;;4998169;28;20426;-69
2021/12/31 10:38:02;;;;;;;6.70;3.93;;;10.40;99.90;;;;;;4988612;28;20791;-69
2021/12/31 10:40:31;;;;;;;6.37;3.40;;;10.50;99.90;;;;;;4996409;28;20979;-69
2021/12/31 10:43:12;;;;;;;6.90;2.93;;;10.60;99.90;;;;;;4998718;28;20480;-69
2021/12/31 10:45:58;;;;;;;5.37;3.00;;;10.80;99.90;;;;;;4987753;28;20434;-69
2021/12/31 10:48:44;;;;;;;7.47;3.57;;;10.90;99.90;;;;;;4989509;28;20529;-69
2021/12/31 10:51:14;;;;;;;6.47;2.87;;;11.00;99.90;;;;;;4987143;28;20533;-69
2021/12/31 10:53:43;;;;;;;5.30;2.10;;;10.90;99.90;;;;;;4990083;28;20900;-69
2021/12/31 10:56:12;;;;;;;5.10;2.77;;;11.00;99.90;;;;;;4984380;28;20419;-69
2021/12/31 10:58:46;;;;;;;5.63;3.00;;;11.10;99.90;;;;;;4992198;28;21077;-69
2021/12/31 11:01:15;;;;;;;6.40;2.90;;;11.30;99.90;;;;;;4986010;28;20525;-69
2021/12/31 11:03:42;;;;;;;4.73;3.03;;;11.40;99.90;;;;;;4993949;28;20444;-70
2021/12/31 11:06:12;;;;;;;5.47;3.10;;;11.40;99.90;;;;;;4986521;28;20430;-70
2021/12/31 11:08:42;;;;;;;6.50;3.03;;;11.60;99.90;;;;;;4995312;28;20477;-70
2021/12/31 11:11:08;;;;;;;4.87;2.43;;;11.80;99.90;;;;;;4992672;28;20430;-69
2021/12/31 11:13:34;;;;;;;5.50;2.83;;;11.70;99.90;;;;;;4996302;28;20438;-69
2021/12/31 11:16:00;;;;;;;4.43;2.83;;;11.80;99.90;;;;;;4999750;28;20433;-69
2021/12/31 11:18:27;;;;;;;8.10;1.63;;;11.80;99.90;;;;;;4997082;28;20626;-70
2021/12/31 11:21:04;;;;;;;5.63;2.33;;;12.00;99.90;;;;;;4989398;28;20442;-70
2021/12/31 11:23:31;;;;;;;5.50;2.97;;;12.20;99.90;;;;;;4988483;28;20441;-69
2021/12/31 11:26:01;;;;;;;5.40;2.70;;;12.20;99.90;;;;;;4988991;28;20446;-70
2021/12/31 11:28:32;;;;;;;4.00;2.20;;;12.40;99.90;;;;;;4982766;28;20470;-70
2021/12/31 11:31:16;;;;;;;4.93;2.33;;;12.40;99.90;;;;;;4982737;28;20422;-70
2021/12/31 11:33:44;;;;;;;5.87;2.80;;;12.40;99.90;;;;;;4985800;28;20781;-70
2021/12/31 11:36:11;;;;;;;4.03;2.40;;;12.50;99.90;;;;;;4994774;28;20474;-70
2021/12/31 11:38:41;;;;;;;2.43;1.43;;;12.60;99.90;;;;;;4995576;28;20438;-70
2021/12/31 11:41:11;;;;;;;3.00;1.33;;;12.70;99.90;;;;;;4984706;28;20463;-70
2021/12/31 11:43:44;;;;;;;5.10;2.47;;;12.80;99.90;;;;;;4997345;28;20446;-70
2021/12/31 11:46:10;;;;;;;3.77;1.80;;;12.90;99.90;;;;;;4994003;28;20431;-69
2021/12/31 11:48:51;;;;;;;3.43;2.00;;;12.90;99.90;;;;;;4989410;28;20466;-70
2021/12/31 11:51:18;;;;;;;4.70;2.23;;;12.80;99.90;;;;;;4997086;28;20196;-69
2021/12/31 11:53:57;;;;;;;4.37;2.10;;;12.70;99.90;;;;;;4998530;28;20419;-70
2021/12/31 11:56:41;;;;;;;5.80;1.90;;;12.60;99.90;;;;;;4986004;28;20457;-70
2021/12/31 11:59:07;;;;;;;2.30;1.30;;;12.60;99.90;;;;;;4990793;28;20459;-69
2021/12/31 12:02:04;;;;;;;4.00;1.73;;;12.70;99.90;;;;;;4991230;28;20474;-70
2021/12/31 12:04:35;;;;;;;5.30;2.03;;;12.80;99.90;;;;;;4988501;28;20199;-70
2021/12/31 12:07:09;;;;;;;2.87;1.70;;;12.90;99.90;;;;;;4992252;28;20418;-70
2021/12/31 12:09:38;;;;;;;3.80;2.10;;;13.00;99.90;;;;;;4993533;28;20508;-70
2021/12/31 12:12:14;;;;;;;5.53;2.27;;;13.10;99.90;;;;;;4991167;28;20442;-70
2021/12/31 12:14:45;;;;;;;4.93;1.77;;;13.10;99.90;;;;;;4990102;28;20457;-70
2021/12/31 12:17:29;;;;;;;3.20;1.90;;;13.00;99.90;;;;;;4985291;28;20442;-70
2021/12/31 12:19:57;;;;;;;3.50;1.83;;;13.00;99.90;;;;;;4980480;28;20430;-70
2021/12/31 12:22:24;;;;;;;4.80;1.70;;;13.10;99.90;;;;;;4977892;28;20430;-69
2021/12/31 12:24:52;;;;;;;3.50;1.90;;;13.10;99.90;;;;;;4982093;28;20496;-70
2021/12/31 12:27:19;;;;;;;3.60;1.53;;;13.10;99.90;;;;;;4985907;28;20439;-69
2021/12/31 12:29:45;;;;;;;3.87;2.10;;;13.10;99.90;;;;;;4985333;28;20479;-69
2021/12/31 12:32:12;;;;;;;2.37;1.20;;;13.20;99.90;;;;;;4988985;28;20532;-69
2021/12/31 12:34:38;;;;;;;2.70;1.60;;;13.10;99.90;;;;;;4989617;28;20860;-70
2021/12/31 12:37:04;;;;;;;5.63;2.00;;;13.20;99.90;;;;;;4986028;28;20477;-70
2021/12/31 12:39:33;;;;;;;4.50;1.40;;;13.20;99.90;;;;;;4995223;28;20267;-70
2021/12/31 12:41:59;;;;;;;2.57;1.17;;;13.30;99.90;;;;;;4980485;28;20196;-71
2021/12/31 12:44:25;;;;;;;2.60;1.00;;;13.30;99.90;;;;;;4987075;28;20446;-70
2021/12/31 12:47:00;;;;;;;3.90;1.93;;;13.40;99.90;;;;;;4981916;28;20193;-70
2021/12/31 12:49:26;;;;;;;5.60;1.63;;;13.30;99.90;;;;;;4993748;28;20524;-70
2021/12/31 12:51:54;;;;;;;3.77;1.50;;;13.30;99.90;;;;;;4988488;28;20446;-70
2021/12/31 12:54:23;;;;;;;4.37;2.10;;;13.20;99.90;;;;;;4991460;28;20795;-70
2021/12/31 12:56:51;;;;;;;7.77;2.00;;;13.10;99.90;;;;;;4991688;28;20817;-70
2021/12/31 12:59:22;;;;;;;3.77;1.90;;;13.20;99.90;;;;;;4993313;28;20758;-70